createdAt,value
2023-01-03T00:02:11.758Z,-147.88
2023-01-03T00:04:40.388Z,-147.88
2023-01-03T00:07:08.847Z,-147.88
2023-01-03T00:09:35.491Z,-147.88
2023-01-03T00:12:22.505Z,-147.88
2023-01-03T00:14:53.734Z,-147.88
2023-01-03T00:17:21.057Z,-147.88
2023-01-03T00:19:47.913Z,-147.88
2023-01-03T00:22:16.413Z,-147.88
2023-01-03T00:24:43.566Z,-147.88
2023-01-03T00:27:10.621Z,-147.88
2023-01-03T00:29:40.849Z,-147.88
2023-01-03T00:32:09.250Z,-147.88
2023-01-03T00:34:36.351Z,-147.88
2023-01-03T00:37:03.303Z,-147.88
2023-01-03T00:39:30.048Z,-147.88
2023-01-03T00:41:56.904Z,-147.88
2023-01-03T00:44:23.698Z,-147.88
2023-01-03T00:46:50.498Z,-147.88
2023-01-03T00:49:18.687Z,-147.88
2023-01-03T00:51:45.718Z,-147.88
2023-01-03T00:54:14.113Z,-147.88
2023-01-03T00:56:42.870Z,-147.88
2023-01-03T00:59:10.503Z,-147.88
2023-01-03T01:01:46.202Z,-147.88
2023-01-03T01:04:15.720Z,-147.88
2023-01-03T01:06:45.872Z,-147.88
2023-01-03T01:09:14.160Z,-147.88
2023-01-03T01:11:41.422Z,-147.88
2023-01-03T01:14:20.382Z,-147.88
2023-01-03T01:16:48.642Z,-147.88
2023-01-03T01:19:16.197Z,-147.88
2023-01-03T01:21:44.944Z,-147.88
2023-01-03T01:24:17.412Z,-147.88
2023-01-03T01:26:45.428Z,-147.88
2023-01-03T01:29:13.442Z,-147.88
2023-01-03T01:31:40.893Z,-147.88
2023-01-03T01:34:07.902Z,-147.88
2023-01-03T01:36:37.649Z,-147.88
2023-01-03T01:39:08.545Z,-147.88
2023-01-03T01:41:55.654Z,-147.88
2023-01-03T01:44:45.481Z,-147.88
2023-01-03T01:47:17.566Z,-147.88
2023-01-03T01:49:45.734Z,-147.88
2023-01-03T01:52:14.858Z,-147.88
2023-01-03T01:54:43.507Z,-147.88
2023-01-03T01:57:15.711Z,-147.88
2023-01-03T01:59:42.747Z,-147.88
2023-01-03T02:02:10.781Z,-147.88
2023-01-03T02:04:40.341Z,-147.88
2023-01-03T02:07:07.210Z,-147.88
2023-01-03T02:09:35.393Z,-147.88
2023-01-03T02:12:30.988Z,-147.88
2023-01-03T02:15:13.350Z,-147.88
2023-01-03T02:17:50.474Z,-147.88
2023-01-03T02:20:46.223Z,-147.88
2023-01-03T02:23:33.809Z,-147.88
2023-01-03T02:26:51.143Z,-147.88
2023-01-03T02:29:55.583Z,-147.88
2023-01-03T02:32:34.368Z,-147.88
2023-01-03T02:35:06.420Z,-147.88
2023-01-03T02:37:40.177Z,-147.88
2023-01-03T02:40:11.383Z,-147.88
2023-01-03T02:42:57.986Z,-147.88
2023-01-03T02:45:48.613Z,-147.88
2023-01-03T02:48:26.204Z,-147.88
2023-01-03T02:50:57.701Z,-147.88
2023-01-03T02:53:28.710Z,-147.88
2023-01-03T02:55:58.679Z,-147.88
2023-01-03T02:58:29.848Z,-147.88
2023-01-03T03:01:02.013Z,-147.88
2023-01-03T03:03:34.023Z,-147.88
2023-01-03T03:06:08.305Z,-147.88
2023-01-03T03:08:35.047Z,-147.88
2023-01-03T03:11:19.925Z,-147.88
2023-01-03T03:13:50.967Z,-147.88
2023-01-03T03:16:41.145Z,-147.88
2023-01-03T03:19:39.816Z,-147.88
2023-01-03T03:22:30.316Z,3.44
2023-01-03T03:25:00.001Z,3.42
2023-01-03T03:27:47.523Z,3.35
2023-01-03T03:30:18.126Z,3.34
2023-01-03T03:32:47.517Z,3.29
2023-01-03T03:35:21.072Z,3.34
2023-01-03T03:37:50.083Z,3.25
2023-01-03T03:40:35.100Z,3.16
2023-01-03T03:43:28.439Z,3.15
2023-01-03T03:46:02.759Z,3.13
2023-01-03T03:48:54.168Z,3.09
2023-01-03T03:51:25.315Z,3.04
2023-01-03T03:53:53.791Z,3.02
2023-01-03T03:56:28.279Z,2.99
2023-01-03T03:59:00.678Z,3.02
2023-01-03T04:01:29.176Z,-147.88
2023-01-03T04:04:00.120Z,-147.88
2023-01-03T04:06:32.010Z,-147.88
2023-01-03T04:08:59.025Z,-147.88
2023-01-03T04:11:25.853Z,-147.88
2023-01-03T04:13:52.605Z,-147.88
2023-01-03T04:16:19.301Z,-147.88
2023-01-03T04:18:46.022Z,-147.88
2023-01-03T04:21:18.743Z,-147.88
2023-01-03T04:23:49.138Z,-147.88
2023-01-03T04:26:15.979Z,-147.88
2023-01-03T04:28:42.636Z,-147.88
2023-01-03T04:31:09.723Z,-147.88
2023-01-03T04:33:36.512Z,-147.88
2023-01-03T04:36:04.081Z,-147.88
2023-01-03T04:38:30.871Z,-147.88
2023-01-03T04:41:04.972Z,-147.88
2023-01-03T04:43:50.110Z,-147.88
2023-01-03T04:46:16.961Z,-147.88
2023-01-03T04:48:43.786Z,-147.88
2023-01-03T04:51:10.512Z,-147.88
2023-01-03T04:53:37.250Z,-147.88
2023-01-03T04:56:05.930Z,-147.88
2023-01-03T04:58:32.608Z,-147.88
2023-01-03T05:01:00.670Z,-147.88
2023-01-03T05:03:28.166Z,-147.88
2023-01-03T05:05:58.826Z,-147.88
2023-01-03T05:08:28.634Z,-147.88
2023-01-03T05:10:55.881Z,-147.88
2023-01-03T05:13:24.014Z,-147.88
2023-01-03T05:15:50.660Z,-147.88
2023-01-03T05:18:17.593Z,-147.88
2023-01-03T05:21:03.249Z,-147.88
2023-01-03T05:23:48.709Z,-147.88
2023-01-03T05:26:18.293Z,-147.88
2023-01-03T05:28:49.578Z,-147.88
2023-01-03T05:31:16.384Z,-147.88
2023-01-03T05:33:43.220Z,-147.88
2023-01-03T05:36:10.824Z,-147.88
2023-01-03T05:38:38.264Z,-147.88
2023-01-03T05:41:05.528Z,-147.88
2023-01-03T05:43:32.858Z,-147.88
2023-01-03T05:46:01.143Z,-147.88
2023-01-03T05:48:28.040Z,-147.88
2023-01-03T05:50:57.443Z,-147.88
2023-01-03T05:53:24.497Z,-147.88
2023-01-03T05:55:51.373Z,-147.88
2023-01-03T05:58:18.169Z,-147.88
2023-01-03T06:00:44.889Z,-147.88
2023-01-03T06:03:12.919Z,-147.88
2023-01-03T06:05:44.573Z,-147.88
2023-01-03T06:08:14.667Z,-147.88
2023-01-03T06:10:41.286Z,-147.88
2023-01-03T06:13:08.195Z,-147.88
2023-01-03T06:15:34.898Z,-147.88
2023-01-03T06:18:02.752Z,-147.88
2023-01-03T06:20:30.994Z,-147.88
2023-01-03T06:22:58.405Z,-147.88
2023-01-03T06:25:25.240Z,-147.88
2023-01-03T06:27:51.938Z,-147.88
2023-01-03T06:30:18.849Z,-147.88
2023-01-03T06:32:45.629Z,-147.88
2023-01-03T06:35:12.704Z,-147.88
2023-01-03T06:37:41.393Z,-147.88
2023-01-03T06:40:09.286Z,-147.88
2023-01-03T06:42:44.862Z,-147.88
2023-01-03T06:45:32.004Z,-147.88
2023-01-03T06:48:17.534Z,-147.88
2023-01-03T06:51:03.474Z,-147.88
2023-01-03T06:53:34.791Z,-147.88
2023-01-03T06:56:01.718Z,-147.88
2023-01-03T06:58:28.734Z,-147.88
2023-01-03T07:00:56.822Z,-147.88
2023-01-03T07:03:24.149Z,-147.88
2023-01-03T07:05:51.344Z,-147.88
2023-01-03T07:08:18.148Z,-147.88
2023-01-03T07:10:46.231Z,-147.88
2023-01-03T07:13:31.260Z,-147.88
2023-01-03T07:15:58.169Z,-147.88
2023-01-03T07:18:26.345Z,1.89
2023-01-03T07:20:53.644Z,1.87
2023-01-03T07:23:20.438Z,1.96
2023-01-03T07:25:48.808Z,2.32
2023-01-03T07:28:16.889Z,2.42
2023-01-03T07:30:45.951Z,2.44
2023-01-03T07:33:15.285Z,2.60
2023-01-03T07:35:42.900Z,2.82
2023-01-03T07:38:11.143Z,2.84
2023-01-03T07:40:37.870Z,2.85
2023-01-03T07:43:24.669Z,2.92
2023-01-03T07:45:51.446Z,2.81
2023-01-03T07:48:18.144Z,2.82
2023-01-03T07:50:44.947Z,2.87
2023-01-03T07:53:16.653Z,3.08
2023-01-03T07:55:45.398Z,3.06
2023-01-03T07:58:13.659Z,2.95
2023-01-03T08:00:40.535Z,2.94
2023-01-03T08:03:10.834Z,3.24
2023-01-03T08:05:38.127Z,3.37
2023-01-03T08:08:05.438Z,3.34
2023-01-03T08:10:50.926Z,3.25
2023-01-03T08:13:19.397Z,3.13
2023-01-03T08:15:49.529Z,3.10
2023-01-03T08:18:16.865Z,3.15
2023-01-03T08:20:43.804Z,3.40
2023-01-03T08:23:10.798Z,3.53
2023-01-03T08:25:38.295Z,3.44
2023-01-03T08:28:06.609Z,3.38
2023-01-03T08:30:40.384Z,3.43
2023-01-03T08:33:10.664Z,3.53
2023-01-03T08:35:39.475Z,3.63
2023-01-03T08:38:10.288Z,3.71
2023-01-03T08:40:42.183Z,3.91
2023-01-03T08:43:11.362Z,4.01
2023-01-03T08:45:40.019Z,4.37
2023-01-03T08:48:07.766Z,4.71
2023-01-03T08:50:35.091Z,4.98
2023-01-03T08:53:01.935Z,5.00
2023-01-03T08:55:28.607Z,5.17
2023-01-03T08:57:55.379Z,5.33
2023-01-03T09:00:22.192Z,5.42
2023-01-03T09:02:50.652Z,5.55
2023-01-03T09:05:17.722Z,5.54
2023-01-03T09:07:44.498Z,5.65
2023-01-03T09:10:11.906Z,5.67
2023-01-03T09:12:38.636Z,5.72
2023-01-03T09:15:07.444Z,5.80
2023-01-03T09:17:34.275Z,5.82
2023-01-03T09:20:02.309Z,5.84
2023-01-03T09:22:29.250Z,5.95
2023-01-03T09:24:55.960Z,6.01
2023-01-03T09:27:22.738Z,6.09
2023-01-03T09:29:49.628Z,6.15
2023-01-03T09:32:16.493Z,6.27
2023-01-03T09:34:43.439Z,6.20
2023-01-03T09:37:11.530Z,6.34
2023-01-03T09:39:40.719Z,6.37
2023-01-03T09:42:29.501Z,6.44
2023-01-03T09:44:56.312Z,6.55
2023-01-03T09:47:25.822Z,6.59
2023-01-03T09:53:03.921Z,6.74
2023-01-03T09:55:59.085Z,6.85
2023-01-03T09:58:44.662Z,-147.88
2023-01-03T10:01:41.303Z,-147.88
2023-01-03T10:04:27.896Z,-147.88
2023-01-03T10:07:04.287Z,-147.88
2023-01-03T10:09:38.251Z,-147.88
2023-01-03T10:12:10.180Z,-147.88
2023-01-03T10:14:55.097Z,-147.88
2023-01-03T10:17:28.509Z,-147.88
2023-01-03T10:20:16.739Z,-147.88
2023-01-03T10:22:45.446Z,-147.88
2023-01-03T10:25:15.954Z,-147.88
2023-01-03T10:27:46.502Z,-147.88
2023-01-03T10:30:16.789Z,-147.88
2023-01-03T10:33:02.315Z,-147.88
2023-01-03T10:35:30.676Z,-147.88
2023-01-03T10:37:58.743Z,-147.88
2023-01-03T10:40:35.497Z,-147.88
2023-01-03T10:43:10.792Z,-147.88
2023-01-03T10:45:51.745Z,-147.88
2023-01-03T10:48:18.535Z,-147.88
2023-01-03T10:50:46.251Z,-147.88
2023-01-03T10:53:15.775Z,-147.88
2023-01-03T10:55:49.809Z,-147.88
2023-01-03T10:58:20.665Z,-147.88
2023-01-03T11:00:47.494Z,-147.88
2023-01-03T11:03:17.001Z,-147.88
2023-01-03T11:05:46.459Z,-147.88
2023-01-03T11:08:19.651Z,-147.88
2023-01-03T11:10:53.779Z,-147.88
2023-01-03T11:13:32.983Z,-147.88
2023-01-03T11:16:01.613Z,-147.88
2023-01-03T11:18:29.452Z,-147.88
2023-01-03T11:21:06.409Z,-147.88
2023-01-03T11:23:52.281Z,-147.88
2023-01-03T11:26:34.688Z,-147.88
2023-01-03T11:29:31.293Z,-147.88
2023-01-03T11:32:09.886Z,-147.88
2023-01-03T11:35:22.028Z,-147.88
2023-01-03T11:37:55.658Z,-147.88
2023-01-03T11:40:32.233Z,-147.88
2023-01-03T11:43:15.249Z,-147.88
2023-01-03T11:45:53.476Z,-147.88
2023-01-03T11:48:37.728Z,-147.88
2023-01-03T11:51:11.384Z,7.14
2023-01-03T11:53:44.054Z,-147.88
2023-01-03T11:56:25.663Z,-147.88
2023-01-03T11:59:11.088Z,-147.88
2023-01-03T12:02:27.010Z,-147.88
2023-01-03T12:05:10.218Z,-147.88
2023-01-03T12:07:52.374Z,-147.88
2023-01-03T12:10:25.568Z,7.05
2023-01-03T12:13:12.329Z,7.00
2023-01-03T12:15:46.548Z,-147.88
2023-01-03T12:18:21.347Z,-147.88
2023-01-03T12:20:54.837Z,-147.88
2023-01-03T12:23:32.292Z,-147.88
2023-01-03T12:26:04.579Z,-147.88
2023-01-03T12:28:38.203Z,-147.88
2023-01-03T12:31:17.826Z,-147.88
2023-01-03T12:33:50.311Z,-147.88
2023-01-03T12:36:27.697Z,6.51
2023-01-03T12:39:03.159Z,6.55
2023-01-03T12:41:36.763Z,6.59
2023-01-03T12:44:13.110Z,6.64
2023-01-03T12:46:47.107Z,-147.88
2023-01-03T12:49:19.263Z,-147.88
2023-01-03T12:51:46.084Z,-147.88
2023-01-03T12:54:26.822Z,6.46
2023-01-03T12:57:11.701Z,6.39
2023-01-03T12:59:57.861Z,-147.88
2023-01-03T13:02:35.124Z,-147.88
2023-01-03T13:05:14.821Z,-147.88
2023-01-03T13:07:44.859Z,-147.88
2023-01-03T13:10:17.118Z,-147.88
2023-01-03T13:12:49.460Z,-147.88
2023-01-03T13:15:23.665Z,6.89
2023-01-03T13:17:51.721Z,6.96
2023-01-03T13:20:27.925Z,7.03
2023-01-03T13:22:55.678Z,7.05
2023-01-03T13:25:38.742Z,7.05
2023-01-03T13:28:29.815Z,7.04
2023-01-03T13:31:38.500Z,-147.88
2023-01-03T13:34:30.074Z,6.91
2023-01-03T13:37:16.222Z,-147.88
2023-01-03T13:39:47.804Z,-147.88
2023-01-03T13:42:23.297Z,-147.88
2023-01-03T13:44:51.051Z,-147.88
2023-01-03T13:47:26.695Z,6.68
2023-01-03T13:49:54.878Z,6.69
2023-01-03T13:52:55.531Z,-147.88
2023-01-03T13:55:36.267Z,-147.88
2023-01-03T13:58:04.322Z,-147.88
2023-01-03T14:00:31.379Z,-147.88
2023-01-03T14:03:21.776Z,-147.88
2023-01-03T14:06:24.010Z,-147.88
2023-01-03T14:09:29.671Z,-147.88
2023-01-03T14:12:29.518Z,-147.88
2023-01-03T14:14:57.932Z,-147.88
2023-01-03T14:17:28.570Z,-147.88
2023-01-03T14:19:59.016Z,-147.88
2023-01-03T14:22:35.752Z,-147.88
2023-01-03T14:25:02.599Z,-147.88
2023-01-03T14:27:35.992Z,-147.88
2023-01-03T14:30:02.849Z,-147.88
2023-01-03T14:32:35.151Z,-147.88
2023-01-03T14:35:02.378Z,-147.88
2023-01-03T14:37:30.661Z,-147.88
2023-01-03T14:39:59.723Z,-147.88
2023-01-03T14:42:27.706Z,-147.88
2023-01-03T14:44:58.291Z,-147.88
2023-01-03T14:47:32.283Z,-147.88
2023-01-03T14:50:01.311Z,-147.88
2023-01-03T14:52:32.758Z,-147.88
2023-01-03T14:55:05.432Z,-147.88
2023-01-03T14:57:37.588Z,-147.88
2023-01-03T15:00:07.893Z,-147.88
2023-01-03T15:02:38.339Z,-147.88
2023-01-03T15:05:27.036Z,-147.88
2023-01-03T15:07:54.611Z,-147.88
2023-01-03T15:10:29.126Z,-147.88
2023-01-03T15:13:00.677Z,-147.88
2023-01-03T15:15:36.879Z,-147.88
2023-01-03T15:18:09.705Z,-147.88
2023-01-03T15:20:40.742Z,-147.88
2023-01-03T15:23:16.847Z,-147.88
2023-01-03T15:25:43.667Z,-147.88
2023-01-03T15:28:24.854Z,-147.88
2023-01-03T15:30:54.485Z,-147.88
2023-01-03T15:33:36.360Z,-147.88
2023-01-03T15:36:06.522Z,-147.88
2023-01-03T15:38:35.906Z,-147.88
2023-01-03T15:41:15.888Z,-147.88
2023-01-03T15:43:42.659Z,-147.88
2023-01-03T15:46:14.777Z,-147.88
2023-01-03T15:48:43.515Z,-147.88
2023-01-03T15:51:10.306Z,-147.88
2023-01-03T15:53:43.708Z,-147.88
2023-01-03T15:56:20.770Z,-147.88
2023-01-03T15:58:49.521Z,-147.88
2023-01-03T16:01:18.534Z,-147.88
2023-01-03T16:03:46.543Z,-147.88
2023-01-03T16:06:13.320Z,-147.88
2023-01-03T16:08:40.817Z,-147.88
2023-01-03T16:11:16.953Z,-147.88
2023-01-03T16:13:51.022Z,-147.88
2023-01-03T16:16:22.879Z,-147.88
2023-01-03T16:18:50.276Z,-147.88
2023-01-03T16:21:17.828Z,-147.88
2023-01-03T16:23:44.599Z,-147.88
2023-01-03T16:26:11.748Z,-147.88
2023-01-03T16:28:38.430Z,-147.88
2023-01-03T16:31:16.020Z,-147.88
2023-01-03T16:33:46.737Z,-147.88
2023-01-03T16:36:25.851Z,-147.88
2023-01-03T16:38:52.492Z,-147.88
2023-01-03T16:41:19.230Z,-147.88
2023-01-03T16:43:46.146Z,-147.88
2023-01-03T16:46:23.920Z,-147.88
2023-01-03T16:48:55.490Z,-147.88
2023-01-03T16:51:25.177Z,-147.88
2023-01-03T16:53:53.566Z,-147.88
2023-01-03T16:56:20.603Z,-147.88
2023-01-03T16:58:47.399Z,-147.88
2023-01-03T17:01:14.515Z,-147.88
2023-01-03T17:03:42.216Z,-147.88
2023-01-03T17:06:23.843Z,-147.88
2023-01-03T17:08:50.681Z,-147.88
2023-01-03T17:11:17.839Z,-147.88
2023-01-03T17:13:47.512Z,-147.88
2023-01-03T17:16:16.001Z,-147.88
2023-01-03T17:18:44.934Z,-147.88
2023-01-03T17:21:21.043Z,-147.88
2023-01-03T17:23:47.988Z,-147.88
2023-01-03T17:26:19.308Z,-147.88
2023-01-03T17:28:47.523Z,-147.88
2023-01-03T17:31:18.860Z,-147.88
2023-01-03T17:33:45.649Z,-147.88
2023-01-03T17:36:14.050Z,-147.88
2023-01-03T17:38:44.025Z,-147.88
2023-01-03T17:41:17.644Z,-147.88
2023-01-03T17:43:45.020Z,-147.88
2023-01-03T17:46:36.316Z,5.51
2023-01-03T17:49:22.733Z,5.37
2023-01-03T17:51:50.711Z,5.32
2023-01-03T17:54:24.123Z,5.18
2023-01-03T17:56:51.030Z,-147.88
2023-01-03T17:59:18.346Z,-147.88
2023-01-03T18:01:45.177Z,5.18
2023-01-03T18:04:12.065Z,5.15
2023-01-03T18:06:39.758Z,5.07
2023-01-03T18:09:10.937Z,5.02
2023-01-03T18:11:39.067Z,5.02
2023-01-03T18:14:05.884Z,4.93
2023-01-03T18:16:32.726Z,5.07
2023-01-03T18:18:59.485Z,5.15
2023-01-03T18:21:30.288Z,5.09
2023-01-03T18:24:00.740Z,5.14
2023-01-03T18:26:32.234Z,5.52
2023-01-03T18:29:00.415Z,5.54
2023-01-03T18:31:27.139Z,5.37
2023-01-03T18:33:53.874Z,5.34
2023-01-03T18:36:26.193Z,5.22
2023-01-03T18:38:59.754Z,5.18
2023-01-03T18:41:29.111Z,5.24
2023-01-03T18:43:56.552Z,5.19
2023-01-03T18:46:25.839Z,5.20
2023-01-03T18:48:52.749Z,5.22
2023-01-03T18:51:22.129Z,5.17
2023-01-03T18:53:53.200Z,5.14
2023-01-03T18:56:28.321Z,5.08
2023-01-03T18:59:01.692Z,5.10
2023-01-03T19:01:30.779Z,5.12
2023-01-03T19:03:58.590Z,5.09
2023-01-03T19:06:34.051Z,5.08
2023-01-03T19:09:03.293Z,5.08
2023-01-03T19:11:32.949Z,5.04
2023-01-03T19:14:01.239Z,4.97
2023-01-03T19:16:30.582Z,5.08
2023-01-03T19:18:57.692Z,5.10
2023-01-03T19:21:30.451Z,5.07
2023-01-03T19:24:02.130Z,-147.88
2023-01-03T19:26:32.805Z,-147.88
2023-01-03T19:29:02.106Z,-147.88
2023-01-03T19:31:39.217Z,5.05
2023-01-03T19:34:14.119Z,5.08
2023-01-03T19:36:40.815Z,5.09
2023-01-03T19:39:09.261Z,5.15
2023-01-03T19:42:01.079Z,5.16
2023-01-03T19:44:27.867Z,5.12
2023-01-03T19:46:56.494Z,5.12
2023-01-03T19:49:23.460Z,5.15
2023-01-03T19:51:50.290Z,5.13
2023-01-03T19:54:17.281Z,5.12
2023-01-03T19:56:44.620Z,5.08
2023-01-03T19:59:24.326Z,-147.88
2023-01-03T20:02:23.408Z,-147.88
2023-01-03T20:04:39.497Z,5.21
2023-01-03T20:07:12.710Z,5.18
2023-01-03T20:09:39.379Z,5.14
2023-01-03T20:12:09.644Z,5.12
2023-01-03T20:14:37.609Z,5.14
2023-01-03T20:17:04.491Z,5.12
2023-01-03T20:19:31.292Z,5.12
2023-01-03T20:21:59.395Z,5.22
2023-01-03T20:24:32.407Z,5.23
2023-01-03T20:26:59.256Z,5.35
2023-01-03T20:29:26.022Z,5.35
2023-01-03T20:31:52.837Z,5.30
2023-01-03T20:34:19.668Z,5.33
2023-01-03T20:36:51.146Z,5.29
2023-01-03T20:39:25.045Z,5.27
2023-01-03T20:41:51.886Z,5.22
2023-01-03T20:44:19.557Z,5.19
2023-01-03T20:46:46.605Z,5.18
2023-01-03T20:49:17.052Z,5.27
2023-01-03T20:51:43.866Z,5.17
2023-01-03T20:54:10.870Z,5.10
2023-01-03T20:56:39.228Z,5.09
2023-01-03T20:59:06.365Z,5.07
2023-01-03T21:01:33.585Z,5.07
2023-01-03T21:04:00.833Z,5.06
2023-01-03T21:06:29.531Z,5.04
2023-01-03T21:08:58.132Z,4.97
2023-01-03T21:11:27.128Z,-147.88
2023-01-03T21:13:55.706Z,-147.88
2023-01-03T21:16:29.757Z,-147.88
2023-01-03T21:18:56.556Z,-147.88
2023-01-03T21:21:23.942Z,-147.88
2023-01-03T21:23:50.718Z,-147.88
2023-01-03T21:26:17.454Z,-147.88
2023-01-03T21:28:44.177Z,-147.88
2023-01-03T21:31:17.296Z,-147.88
2023-01-03T21:33:44.981Z,-147.88
2023-01-03T21:36:17.604Z,-147.88
2023-01-03T21:38:47.891Z,-147.88
2023-01-03T21:41:17.650Z,-147.88
2023-01-03T21:43:44.679Z,-147.88
2023-01-03T21:46:18.009Z,5.14
2023-01-03T21:48:45.233Z,5.14
2023-01-03T21:51:13.686Z,-147.88
2023-01-03T21:53:41.467Z,5.16
2023-01-03T21:56:09.143Z,5.19
2023-01-03T21:58:36.142Z,5.37
2023-01-03T22:01:11.104Z,5.46
2023-01-03T22:03:58.029Z,5.47
2023-01-03T22:06:25.185Z,5.44
2023-01-03T22:08:52.011Z,5.47
2023-01-03T22:11:19.429Z,5.45
2023-01-03T22:13:46.487Z,5.47
2023-01-03T22:16:13.417Z,5.53
2023-01-03T22:18:41.925Z,5.54
2023-01-03T22:21:10.732Z,5.60
2023-01-03T22:23:38.901Z,5.53
2023-01-03T22:26:07.432Z,5.55
2023-01-03T22:28:35.217Z,5.57
2023-01-03T22:31:01.858Z,5.53
2023-01-03T22:33:28.701Z,5.51
2023-01-03T22:35:58.001Z,5.45
2023-01-03T22:38:24.757Z,5.47
2023-01-03T22:40:51.406Z,5.54
2023-01-03T22:43:18.107Z,5.55
2023-01-03T22:45:45.906Z,5.50
2023-01-03T22:48:12.667Z,5.57
2023-01-03T22:50:39.536Z,5.57
2023-01-03T22:53:07.868Z,5.53
2023-01-03T22:55:34.633Z,5.48
2023-01-03T22:58:01.428Z,5.41
2023-01-03T23:00:28.234Z,5.44
2023-01-03T23:02:55.685Z,5.37
2023-01-03T23:05:22.344Z,5.38
2023-01-03T23:07:49.182Z,5.39
2023-01-03T23:10:17.455Z,5.49
2023-01-03T23:12:59.063Z,5.40
2023-01-03T23:15:27.535Z,5.34
2023-01-03T23:17:56.970Z,5.32
2023-01-03T23:20:24.977Z,5.30
2023-01-03T23:22:59.146Z,5.33
2023-01-03T23:25:27.853Z,5.33
2023-01-03T23:27:54.552Z,5.33
2023-01-03T23:30:21.564Z,5.45
2023-01-03T23:32:48.508Z,5.40
2023-01-03T23:35:18.390Z,5.38
2023-01-03T23:37:47.309Z,5.42
2023-01-03T23:40:14.875Z,5.41
2023-01-03T23:42:43.168Z,5.41
2023-01-03T23:45:10.328Z,5.48
2023-01-03T23:47:37.017Z,5.49
2023-01-03T23:50:04.067Z,5.46
2023-01-03T23:52:32.894Z,5.57
2023-01-03T23:55:03.583Z,5.63
2023-01-03T23:57:32.047Z,5.44
